Time;durP1;ratioP1;P1;durP2;ratioP2;P2;SDS_P1;SDS_P2;PMS_P1;PMS_P2;Temp;Humidity;BMP_temperature;BMP_pressure;BME280_temperature;BME280_humidity;BME280_pressure;Samples;Min_cycle;Max_cycle;Signal;HPM_P1;HPM_P2
2022/03/23 00:00:34;;;;;;;4.57;1.90;;;;;;;5.44;84.44;61388.38;5092429;28;20437;-71
2022/03/23 00:03:01;;;;;;;5.37;2.10;;;;;;;5.21;84.32;61361.34;5092135;28;20472;-71
2022/03/23 00:05:29;;;;;;;5.50;2.40;;;;;;;5.53;84.29;61394.91;5092558;28;20491;-72
2022/03/23 00:07:57;;;;;;;7.17;3.13;;;;;;;5.49;84.88;61390.66;5093112;28;20516;-71
2022/03/23 00:10:24;;;;;;;6.00;2.03;;;;;;;5.44;83.70;61385.84;5092234;28;20904;-72
2022/03/23 00:12:51;;;;;;;6.33;2.30;;;;;;;5.25;86.45;61365.63;5092150;28;20441;-72
2022/03/23 00:15:18;;;;;;;7.67;1.90;;;;;;;5.21;86.81;61361.34;5091591;28;20449;-72
2022/03/23 00:17:46;;;;;;;2.80;2.03;;;;;;;5.30;87.13;61372.91;5092003;28;20534;-71
2022/03/23 00:20:14;;;;;;;9.70;2.53;;;;;;;5.31;85.73;61366.97;5092297;28;20498;-72
2022/03/23 00:22:43;;;;;;;5.47;2.47;;;;;;;5.01;84.73;61340.56;5092304;28;20495;-72
2022/03/23 00:25:11;;;;;;;7.50;2.10;;;;;;;5.35;82.76;61383.84;5092082;28;20885;-72
2022/03/23 00:27:38;;;;;;;9.10;2.20;;;;;;;5.38;82.73;61376.41;5092226;28;20485;-72
2022/03/23 00:30:07;;;;;;;8.90;2.10;;;;;;;5.33;82.46;61374.16;5092639;28;20438;-72
2022/03/23 00:32:34;;;;;;;8.97;2.97;;;;;;;5.34;82.04;61370.16;5092007;28;20425;-72
2022/03/23 00:35:02;;;;;;;13.40;5.23;;;;;;;5.53;79.57;61392.38;5092959;28;20487;-72
2022/03/23 00:37:29;;;;;;;22.90;6.20;;;;;;;5.38;80.41;61376.94;5093755;28;20572;-72
2022/03/23 00:39:57;;;;;;;8.53;2.33;;;;;;;5.29;79.95;61369.34;5092454;28;20496;-71
2022/03/23 00:42:24;;;;;;;7.77;2.70;;;;;;;5.43;79.91;61382.28;5091758;28;20502;-71
2022/03/23 00:44:54;;;;;;;5.13;2.13;;;;;;;4.91;81.56;61329.91;5091874;28;20442;-72
2022/03/23 00:47:21;;;;;;;9.83;2.67;;;;;;;5.15;82.43;61354.97;5091850;28;20483;-72
2022/03/23 00:49:47;;;;;;;7.53;2.50;;;;;;;4.98;83.80;61336.84;5092049;28;20506;-72
2022/03/23 00:52:16;;;;;;;6.03;2.43;;;;;;;4.77;85.37;61317.00;5092018;28;20441;-71
2022/03/23 00:54:42;;;;;;;8.40;2.40;;;;;;;4.88;85.11;61324.22;5091955;28;20438;-72
2022/03/23 00:57:10;;;;;;;6.17;2.43;;;;;;;4.84;85.95;61324.47;5091460;28;20884;-71
2022/03/23 00:59:37;;;;;;;9.13;2.60;;;;;;;4.75;87.65;61307.31;5091831;28;20483;-70
2022/03/23 01:02:05;;;;;;;6.83;2.27;;;;;;;4.40;87.38;61270.03;5092266;28;20497;-71
2022/03/23 01:04:32;;;;;;;5.67;2.33;;;;;;;4.73;88.41;61310.75;5091726;28;20994;-70
2022/03/23 01:06:59;;;;;;;4.07;1.90;;;;;;;4.69;88.91;61305.97;5091831;28;20878;-71
2022/03/23 01:09:26;;;;;;;7.03;2.10;;;;;;;4.74;89.04;61308.75;5091694;28;20521;-70
2022/03/23 01:11:56;;;;;;;4.00;1.70;;;;;;;4.76;89.04;61311.44;5091494;28;20436;-71
2022/03/23 01:14:26;;;;;;;9.10;2.53;;;;;;;4.65;89.87;61304.25;5092188;28;20429;-73
2022/03/23 01:16:53;;;;;;;6.10;1.97;;;;;;;4.51;90.67;61284.28;5092506;28;20484;-70
2022/03/23 01:19:25;;;;;;;7.30;2.53;;;;;;;4.61;90.21;61297.47;5090320;28;20477;-73
2022/03/23 01:21:51;;;;;;;8.43;2.23;;;;;;;4.59;90.88;61297.84;5091664;28;20461;-71
2022/03/23 01:24:19;;;;;;;5.97;2.50;;;;;;;4.51;91.35;61284.28;5092003;28;20514;-71
2022/03/23 01:26:45;;;;;;;4.37;2.30;;;;;;;4.53;91.01;61288.94;5093352;28;20531;-72
2022/03/23 01:29:13;;;;;;;5.23;1.97;;;;;;;4.55;88.76;61291.59;5095580;28;20499;-71
2022/03/23 01:31:41;;;;;;;6.60;1.77;;;;;;;4.56;90.09;61292.13;5095694;28;20610;-71
2022/03/23 01:34:07;;;;;;;6.33;1.77;;;;;;;4.58;90.07;61289.75;5095461;28;20503;-72
2022/03/23 01:36:34;;;;;;;6.30;2.20;;;;;;;4.57;89.29;61291.19;5095531;28;20454;-70
2022/03/23 01:39:01;;;;;;;8.17;1.93;;;;;;;4.27;88.97;61259.25;5095468;28;20907;-70
2022/03/23 01:41:28;;;;;;;6.23;2.00;;;;;;;4.71;87.51;61308.09;5095496;28;20512;-71
2022/03/23 01:43:55;;;;;;;6.50;1.90;;;;;;;4.46;87.54;61282.00;5095108;28;20960;-72
2022/03/23 01:46:22;;;;;;;7.07;1.90;;;;;;;4.55;87.82;61291.59;5095200;28;20931;-71
2022/03/23 01:48:50;;;;;;;3.00;1.90;;;;;;;4.52;88.59;61290.38;5094985;28;20446;-72
2022/03/23 01:51:17;;;;;;;9.00;2.10;;;;;;;4.51;88.98;61286.81;5094759;28;21017;-71
2022/03/23 01:53:44;;;;;;;3.63;2.03;;;;;;;4.56;88.79;61289.59;5095040;28;20446;-71
2022/03/23 01:56:13;;;;;;;7.73;2.20;;;;;;;4.62;87.67;61294.00;5094911;28;20442;-71
2022/03/23 01:58:40;;;;;;;10.13;2.33;;;;;;;4.61;87.89;61297.47;5094753;28;20568;-70
2022/03/23 02:01:07;;;;;;;9.83;2.70;;;;;;;4.29;89.17;61266.97;5094865;28;20438;-72
2022/03/23 02:03:35;;;;;;;5.63;2.60;;;;;;;4.35;90.55;61270.28;5094518;28;20469;-71
2022/03/23 02:06:04;;;;;;;15.20;2.70;;;;;;;4.40;91.22;61275.09;5093771;28;20528;-72
2022/03/23 02:08:31;;;;;;;6.20;2.60;;;;;;;4.34;91.88;61271.22;5095218;28;20948;-71
2022/03/23 02:10:58;;;;;;;12.00;3.00;;;;;;;4.33;91.54;61268.16;5094436;28;20434;-72
2022/03/23 02:13:24;;;;;;;6.37;2.83;;;;;;;4.14;93.36;61248.50;5094814;28;20487;-72
2022/03/23 02:15:52;;;;;;;8.37;2.67;;;;;;;4.06;94.26;61239.97;5093312;28;20457;-71
2022/03/23 02:18:20;;;;;;;9.67;2.63;;;;;;;4.12;94.78;61246.38;5094454;28;20486;-70
2022/03/23 02:20:47;;;;;;;5.00;2.50;;;;;;;4.02;96.37;61235.72;5094716;28;20446;-71
2022/03/23 02:23:15;;;;;;;7.60;2.80;;;;;;;4.06;97.27;61239.97;5094421;28;20452;-71
2022/03/23 02:25:46;;;;;;;7.90;2.93;;;;;;;3.96;99.52;61219.25;5094365;28;20529;-71
2022/03/23 02:28:15;;;;;;;6.40;2.80;;;;;;;3.95;99.51;61225.75;5094469;28;20485;-72
2022/03/23 02:30:42;;;;;;;6.87;2.67;;;;;;;3.99;99.77;61227.47;5094333;28;20533;-71
2022/03/23 02:33:10;;;;;;;8.20;2.63;;;;;;;3.97;100.00;61229.84;5094269;28;20448;-72
2022/03/23 02:35:37;;;;;;;6.77;2.63;;;;;;;3.99;100.00;61232.53;5094122;28;20445;-72
2022/03/23 02:38:05;;;;;;;6.13;3.33;;;;;;;3.88;100.00;61220.81;5093636;28;20531;-71
2022/03/23 02:40:35;;;;;;;7.73;2.60;;;;;;;3.69;100.00;61200.59;5093719;28;20919;-69
2022/03/23 02:43:02;;;;;;;9.80;2.77;;;;;;;3.70;100.00;61199.16;5093996;28;20515;-71
2022/03/23 02:45:29;;;;;;;10.23;2.80;;;;;;;3.82;100.00;61214.44;5094210;28;20441;-71
2022/03/23 02:47:56;;;;;;;9.80;2.87;;;;;;;3.78;100.00;61212.72;5093841;28;20480;-70
2022/03/23 02:50:24;;;;;;;8.67;2.93;;;;;;;3.52;100.00;61182.53;5093960;28;20449;-71
2022/03/23 03:04:14;;;;;;;15.13;3.47;;;;;;;3.02;100.00;61129.38;5077788;28;20472;-71
2022/03/23 03:06:40;;;;;;;6.47;3.30;;;;;;;3.07;100.00;61134.69;5093632;28;20433;-70
2022/03/23 03:09:07;;;;;;;9.73;3.37;;;;;;;2.88;100.00;61109.97;5093929;28;20430;-70
2022/03/23 03:11:35;;;;;;;6.00;3.13;;;;;;;2.89;100.00;61111.06;5094012;28;20437;-71
2022/03/23 03:14:02;;;;;;;10.30;3.07;;;;;;;2.95;100.00;61121.91;5094028;28;20837;-71
2022/03/23 03:16:29;;;;;;;8.07;3.37;;;;;;;2.95;100.00;61122.47;5093187;28;20446;-71
2022/03/23 03:18:56;;;;;;;16.53;3.63;;;;;;;2.86;100.00;61112.38;5093868;28;20481;-71
2022/03/23 03:21:23;;;;;;;11.77;3.90;;;;;;;2.84;100.00;61110.25;5093020;28;20438;-71
2022/03/23 03:23:49;;;;;;;16.20;4.23;;;;;;;2.66;100.00;61089.13;5093250;28;20438;-72
2022/03/23 03:26:19;;;;;;;6.37;2.93;;;;;;;2.81;100.00;61107.03;5093068;28;20446;-70
2022/03/23 03:28:49;;;;;;;12.27;3.80;;;;;;;2.66;100.00;61091.63;5093374;28;20967;-72
2022/03/23 03:31:16;;;;;;;8.53;3.43;;;;;;;2.72;100.00;61095.50;5093149;28;20975;-71
2022/03/23 03:33:44;;;;;;;16.27;4.03;;;;;;;2.86;100.00;61115.41;5092867;28;21024;-71
2022/03/23 03:36:11;;;;;;;9.17;3.50;;;;;;;2.87;100.00;61113.97;5093040;28;20441;-71
2022/03/23 03:38:39;;;;;;;8.13;2.90;;;;;;;2.73;100.00;61101.06;5092770;28;20477;-71
2022/03/23 03:41:06;;;;;;;6.23;2.60;;;;;;;2.81;100.00;61105.06;5092956;28;20441;-71
2022/03/23 03:43:34;;;;;;;7.57;2.63;;;;;;;2.99;100.00;61126.16;5092848;28;20442;-71
2022/03/23 03:46:06;;;;;;;6.07;2.80;;;;;;;3.05;100.00;61127.53;5092906;28;20437;-72
2022/03/23 03:48:33;;;;;;;6.77;2.83;;;;;;;2.94;100.00;61115.84;5092585;28;20438;-71
2022/03/23 03:51:01;;;;;;;10.63;3.17;;;;;;;2.94;100.00;61120.88;5092407;28;20487;-71
2022/03/23 03:53:28;;;;;;;6.77;2.57;;;;;;;2.92;100.00;61113.72;5092622;28;20868;-70
2022/03/23 03:55:54;;;;;;;10.30;2.90;;;;;;;2.71;100.00;61096.41;5092650;28;20446;-71
2022/03/23 03:58:22;;;;;;;7.03;2.60;;;;;;;2.78;100.00;61103.88;5091615;28;20511;-71
2022/03/23 04:00:48;;;;;;;9.53;3.13;;;;;;;2.79;100.00;61102.94;5092461;28;20990;-71
2022/03/23 04:03:17;;;;;;;12.40;3.40;;;;;;;2.88;100.00;61114.50;5092321;28;20446;-71
2022/03/23 04:05:45;;;;;;;11.87;2.93;;;;;;;2.76;100.00;61101.75;5092458;28;20446;-72
2022/03/23 04:08:13;;;;;;;6.63;3.13;;;;;;;2.85;100.00;61111.28;5092848;28;20453;-73
2022/03/23 04:10:40;;;;;;;9.30;2.87;;;;;;;3.09;100.00;61136.81;5092447;28;20491;-71
2022/03/23 04:13:08;;;;;;;7.60;2.73;;;;;;;2.05;100.00;61026.84;5092525;28;20440;-71
2022/03/23 04:15:35;;;;;;;9.43;2.47;;;;;;;3.09;100.00;61134.28;5092656;28;20432;-71
2022/03/23 04:18:04;;;;;;;4.47;2.40;;;;;;;3.19;100.00;61147.44;5092329;28;20445;-71
2022/03/23 04:20:32;;;;;;;17.00;4.37;;;;;;;3.35;100.00;61166.97;5094854;28;20438;-71
2022/03/23 04:22:59;;;;;;;8.70;3.40;;;;;;;3.42;100.00;61171.91;5094444;28;20870;-71
2022/03/23 04:25:26;;;;;;;18.27;3.40;;;;;;;3.33;100.00;61157.28;5092043;28;20507;-71
2022/03/23 04:27:56;;;;;;;8.37;3.80;;;;;;;3.29;100.00;61163.09;5092112;28;20477;-72
2022/03/23 04:30:30;;;;;;;8.53;2.77;;;;;;;3.36;100.00;61168.03;5092290;28;20433;-71
2022/03/23 04:32:59;;;;;;;16.07;2.90;;;;;;;3.01;100.00;61125.78;5092227;28;21014;-71
2022/03/23 04:35:27;;;;;;;7.97;2.97;;;;;;;3.40;100.00;61169.78;5092081;28;20438;-71
2022/03/23 04:37:55;;;;;;;6.83;2.60;;;;;;;3.24;100.00;61147.72;5092628;28;20583;-71
2022/03/23 04:40:22;;;;;;;23.27;4.50;;;;;;;3.25;100.00;61151.28;5092560;28;20489;-71
2022/03/23 04:42:50;;;;;;;12.27;5.80;;;;;;;3.37;100.00;61169.63;5092107;28;20445;-71
2022/03/23 04:45:17;;;;;;;15.17;4.20;;;;;;;3.27;100.00;61153.41;5092025;28;20442;-72
2022/03/23 04:47:44;;;;;;;12.13;3.53;;;;;;;3.28;100.00;61157.00;5091748;28;20491;-72
2022/03/23 04:50:13;;;;;;;14.30;3.70;;;;;;;3.45;100.00;61175.06;5091927;28;20495;-71
2022/03/23 04:52:41;;;;;;;9.40;3.60;;;;;;;3.42;100.00;61172.41;5091806;28;20857;-72
2022/03/23 04:55:12;;;;;;;12.57;4.10;;;;;;;3.39;100.00;61168.69;5092284;28;20936;-71
2022/03/23 04:57:40;;;;;;;19.43;5.10;;;;;;;3.38;100.00;61170.16;5092202;28;20502;-72
2022/03/23 05:00:10;;;;;;;13.67;4.17;;;;;;;2.81;100.00;61102.56;5090980;28;20825;-70
2022/03/23 05:02:38;;;;;;;15.77;4.13;;;;;;;3.24;100.00;61153.28;5096327;28;20441;-72
2022/03/23 05:05:06;;;;;;;37.63;9.17;;;;;;;3.14;100.00;61142.66;5095584;28;20457;-72
2022/03/23 05:07:35;;;;;;;44.00;16.57;;;;;;;3.35;100.00;61167.50;5096215;28;20438;-73
2022/03/23 05:10:03;;;;;;;38.10;9.60;;;;;;;3.26;100.00;61152.38;5096183;28;20483;-72
2022/03/23 05:12:32;;;;;;;16.50;6.50;;;;;;;3.28;100.00;61157.00;5095791;28;20445;-72
2022/03/23 05:14:59;;;;;;;17.33;5.87;;;;;;;3.17;100.00;61140.81;5096180;28;20541;-72
2022/03/23 05:17:26;;;;;;;16.27;5.40;;;;;;;3.53;100.00;61178.56;5094634;28;20442;-72
2022/03/23 05:19:52;;;;;;;25.77;5.70;;;;;;;3.77;100.00;61209.13;5095518;28;20488;-71
2022/03/23 05:22:19;;;;;;;16.87;5.47;;;;;;;3.91;100.00;61224.00;5095714;28;20880;-72
2022/03/23 05:24:46;;;;;;;9.50;4.30;;;;;;;4.08;100.00;61241.56;5095797;28;20516;-71
2022/03/23 05:27:12;;;;;;;22.17;5.17;;;;;;;4.40;100.00;61277.59;5095209;28;20526;-71
2022/03/23 05:29:41;;;;;;;12.90;4.47;;;;;;;4.67;100.00;61308.88;5095392;28;20442;-71
2022/03/23 05:32:16;;;;;;;18.73;4.60;;;;;;;4.83;100.00;61323.91;5095059;28;20449;-73
2022/03/23 05:34:43;;;;;;;15.20;3.87;;;;;;;5.05;100.00;61344.31;5095646;28;20457;-72
2022/03/23 05:37:09;;;;;;;15.23;3.87;;;;;;;5.29;100.00;61369.88;5095186;28;20442;-71
2022/03/23 05:39:36;;;;;;;11.23;3.80;;;;;;;5.00;100.00;61338.97;5095098;28;20477;-73
2022/03/23 05:42:05;;;;;;;21.13;3.90;;;;;;;5.70;100.00;61413.03;5095110;28;20441;-71
2022/03/23 05:44:32;;;;;;;7.80;3.23;;;;;;;5.77;100.00;61423.03;5096156;28;20442;-71
2022/03/23 05:47:00;;;;;;;8.53;2.33;;;;;;;5.65;100.00;61410.78;5095453;28;20495;-72
2022/03/23 05:49:28;;;;;;;10.37;3.17;;;;;;;5.65;100.00;61405.72;5094739;28;20437;-73
2022/03/23 05:51:55;;;;;;;5.87;3.17;;;;;;;5.87;100.00;61431.19;5094829;28;20940;-72
2022/03/23 05:54:23;;;;;;;11.07;3.43;;;;;;;5.22;100.00;61364.41;5094791;28;20967;-72
2022/03/23 05:56:50;;;;;;;14.93;4.00;;;;;;;5.32;100.00;61378.13;5094748;28;20441;-72
2022/03/23 05:59:18;;;;;;;15.10;3.63;;;;;;;5.59;100.00;61399.31;5094528;28;20484;-70
2022/03/23 06:01:45;;;;;;;12.33;3.23;;;;;;;5.58;100.00;61405.81;5093479;28;20817;-72
2022/03/23 06:04:13;;;;;;;9.83;3.53;;;;;;;5.74;100.00;61417.81;5094276;28;20465;-71
2022/03/23 06:06:41;;;;;;;11.33;4.23;;;;;;;5.73;100.00;61419.31;5094468;28;20449;-71
2022/03/23 06:09:08;;;;;;;9.33;4.53;;;;;;;5.33;100.00;61371.63;5094699;28;20909;-71
2022/03/23 06:11:35;;;;;;;16.17;4.77;;;;;;;5.33;100.00;61374.16;5094787;28;20892;-72
2022/03/23 06:14:01;;;;;;;9.43;3.70;;;;;;;5.02;100.00;61341.09;5094034;28;20446;-71
2022/03/23 06:16:28;;;;;;;8.47;3.80;;;;;;;5.27;100.00;61370.28;5094854;28;20491;-73
2022/03/23 06:18:55;;;;;;;11.83;3.73;;;;;;;5.22;100.00;61357.38;5094285;28;20936;-72
2022/03/23 06:21:24;;;;;;;18.73;5.23;;;;;;;5.22;100.00;61359.88;5094647;28;20442;-71
2022/03/23 06:23:50;;;;;;;19.77;7.60;;;;;;;5.26;100.00;61363.59;5094466;28;20434;-71
2022/03/23 06:26:18;;;;;;;18.17;8.27;;;;;;;5.25;100.00;61365.63;5093543;28;20959;-71
2022/03/23 06:28:45;;;;;;;21.43;8.47;;;;;;;5.24;100.00;61364.53;5094080;28;21004;-71
2022/03/23 06:31:12;;;;;;;19.00;6.90;;;;;;;5.45;100.00;61384.41;5094181;28;20944;-71
2022/03/23 06:33:39;;;;;;;14.03;5.63;;;;;;;5.65;100.00;61408.25;5094265;28;20430;-71
2022/03/23 06:36:06;;;;;;;13.40;4.07;;;;;;;5.73;100.00;61419.31;5094138;28;20856;-71
2022/03/23 06:38:35;;;;;;;10.27;4.40;;;;;;;6.13;100.00;61458.91;5094124;28;20498;-72
2022/03/23 06:41:02;;;;;;;5.67;3.23;;;;;;;6.35;100.00;61481.81;5094186;28;20569;-71
2022/03/23 06:43:29;;;;;;;7.30;3.97;;;;;;;6.70;100.00;61519.19;5094285;28;20446;-71
2022/03/23 06:45:55;;;;;;;9.13;4.10;;;;;;;7.32;100.00;61585.34;5094026;28;20499;-71
2022/03/23 06:48:22;;;;;;;18.33;5.23;;;;;;;7.83;100.00;61636.22;5093898;28;20790;-71
2022/03/23 06:50:49;;;;;;;8.70;4.80;;;;;;;8.03;100.00;61660.66;5093708;28;20454;-71
2022/03/23 06:53:16;;;;;;;10.03;4.17;;;;;;;7.95;100.00;61649.56;5093648;28;20457;-72
2022/03/23 06:55:46;;;;;;;6.57;4.00;;;;;;;7.30;100.00;61582.69;5093719;28;20495;-71
2022/03/23 06:58:13;;;;;;;8.17;3.97;;;;;;;8.43;100.00;61703.41;5094047;28;20524;-70
2022/03/23 07:00:40;;;;;;;8.93;3.93;;;;;;;8.66;100.00;61726.94;5093765;28;20562;-72
2022/03/23 07:03:08;;;;;;;20.60;4.30;;;;;;;8.97;100.00;61755.56;5093580;28;20943;-72
2022/03/23 07:05:36;;;;;;;7.70;3.27;;;;;;;8.92;100.00;61755.28;5093976;28;20438;-71
2022/03/23 07:11:05;;;;;;;8.40;3.07;;;;;;;9.38;100.00;61803.44;5031145;28;20756;-72
2022/03/23 07:13:33;;;;;;;9.60;3.60;;;;;;;9.50;100.00;61816.25;5031379;28;20448;-71
2022/03/23 07:16:00;;;;;;;15.20;5.50;;;;;;;9.60;97.58;61826.97;5059422;28;20450;-71
2022/03/23 07:18:26;;;;;;;15.13;4.73;;;;;;;9.72;94.21;61840.34;5093390;28;20196;-71
2022/03/23 07:20:53;;;;;;;9.83;3.30;;;;;;;9.66;89.35;61833.38;5093132;28;20534;-72
2022/03/23 07:23:20;;;;;;;10.90;3.27;;;;;;;9.93;89.46;61860.28;5093044;28;20280;-71
2022/03/23 07:25:47;;;;;;;8.40;3.00;;;;;;;10.23;87.08;61894.41;5093054;28;20442;-72
2022/03/23 07:28:16;;;;;;;8.47;2.93;;;;;;;10.26;83.55;61897.66;5092947;28;20547;-73
2022/03/23 07:30:43;;;;;;;7.43;3.00;;;;;;;10.04;81.99;61871.53;5092592;28;20204;-70
2022/03/23 07:33:10;;;;;;;8.93;4.10;;;;;;;10.23;81.35;61889.34;5093042;28;20253;-71
2022/03/23 07:35:37;;;;;;;9.37;3.10;;;;;;;10.48;82.55;61923.75;5092778;28;20244;-71
2022/03/23 07:38:04;;;;;;;8.50;2.90;;;;;;;10.80;79.88;61952.94;5092569;28;20662;-72
2022/03/23 07:40:31;;;;;;;11.03;2.27;;;;;;;9.60;78.22;61824.44;5092531;28;20288;-73
2022/03/23 07:42:59;;;;;;;6.37;2.70;;;;;;;9.93;81.47;61859.72;5093147;28;20545;-70
2022/03/23 07:45:27;;;;;;;6.67;2.70;;;;;;;9.65;82.66;61829.75;5093216;28;20207;-72
2022/03/23 07:47:54;;;;;;;6.70;2.83;;;;;;;10.02;84.33;61866.84;5092754;28;20257;-71
2022/03/23 07:50:21;;;;;;;6.30;2.93;;;;;;;10.19;82.97;61885.59;5092386;28;20743;-72
2022/03/23 07:52:48;;;;;;;4.23;2.50;;;;;;;10.72;80.06;61941.81;5092959;28;20441;-72
2022/03/23 07:55:15;;;;;;;7.53;2.57;;;;;;;10.87;76.27;61962.97;5091243;28;20203;-72
2022/03/23 07:57:41;;;;;;;9.47;3.10;;;;;;;10.96;73.36;61967.53;5092614;28;20195;-71
2022/03/23 08:00:10;;;;;;;6.77;2.83;;;;;;;10.61;71.36;61930.03;5092119;28;20284;-71
2022/03/23 08:02:38;;;;;;;8.30;3.47;;;;;;;11.07;72.33;61983.88;5092209;28;20632;-72
2022/03/23 08:05:06;;;;;;;5.30;2.73;;;;;;;11.21;71.72;61998.88;5091915;28;20276;-72
2022/03/23 08:07:33;;;;;;;5.10;2.53;;;;;;;11.14;72.09;61988.31;5092620;28;20199;-72
2022/03/23 08:10:00;;;;;;;6.03;2.60;;;;;;;10.92;69.26;61965.81;5092549;28;20253;-71
2022/03/23 08:12:26;;;;;;;8.17;2.67;;;;;;;11.11;69.46;61990.72;5092129;28;20199;-72
2022/03/23 08:14:53;;;;;;;9.73;2.97;;;;;;;11.48;69.77;62024.75;5092332;28;20200;-73
2022/03/23 08:17:20;;;;;;;8.33;3.30;;;;;;;11.87;67.03;62064.06;5092386;28;20207;-72
2022/03/23 08:20:32;;;;;;;13.33;3.57;;;;;;;12.10;67.34;62091.25;5092323;28;20223;-71
2022/03/23 08:22:36;;;;;;;7.33;3.20;;;;;;;11.92;67.47;62077.06;5091974;28;20202;-74
2022/03/23 08:25:03;;;;;;;13.90;3.80;;;;;;;11.89;66.60;62068.75;5091977;28;20579;-73
2022/03/23 08:27:30;;;;;;;12.93;3.30;;;;;;;11.36;67.69;62014.97;5091764;28;20228;-71
2022/03/23 08:29:57;;;;;;;14.27;3.30;;;;;;;11.13;66.46;61989.78;5092406;28;20252;-72
2022/03/23 08:32:26;;;;;;;10.93;3.63;;;;;;;11.24;64.11;61996.47;5092341;28;20222;-72
2022/03/23 08:34:54;;;;;;;6.00;3.00;;;;;;;11.64;65.17;62044.47;5091564;28;20206;-72
2022/03/23 08:37:21;;;;;;;5.70;2.80;;;;;;;11.66;64.41;62044.59;5092452;28;20283;-71
2022/03/23 08:39:48;;;;;;;9.23;3.23;;;;;;;11.60;65.54;62035.06;5092306;28;20250;-71
2022/03/23 08:42:15;;;;;;;9.10;3.13;;;;;;;11.93;65.12;62073.03;5091916;28;20206;-72
2022/03/23 08:44:45;;;;;;;10.50;4.03;;;;;;;12.37;62.13;62119.72;5091876;28;20199;-72
2022/03/23 08:47:12;;;;;;;9.00;3.50;;;;;;;12.29;59.91;62108.56;5091222;28;20207;-73
2022/03/23 08:49:39;;;;;;;9.43;3.07;;;;;;;12.64;60.50;62149.22;5091607;28;20196;-70
2022/03/23 08:52:08;;;;;;;7.80;3.30;;;;;;;12.41;59.95;62124.53;5092260;28;20231;-71
2022/03/23 08:54:35;;;;;;;15.77;3.90;;;;;;;12.82;59.96;62170.03;5090437;28;20301;-72
2022/03/23 08:57:02;;;;;;;6.43;2.90;;;;;;;12.52;59.13;62144.00;5092206;28;20709;-72
2022/03/23 08:59:30;;;;;;;14.67;3.30;;;;;;;11.59;61.90;62036.56;5091639;28;20195;-73
2022/03/23 09:01:56;;;;;;;9.77;3.47;;;;;;;11.82;62.92;62063.78;5091365;28;20196;-72
2022/03/23 09:04:23;;;;;;;13.43;3.90;;;;;;;12.22;60.79;62101.59;5091363;28;20863;-71
2022/03/23 09:06:50;;;;;;;9.90;3.83;;;;;;;13.06;58.56;62195.81;5091437;28;20195;-72
2022/03/23 09:09:18;;;;;;;8.97;3.47;;;;;;;13.48;55.67;62241.47;5091488;28;20235;-71
2022/03/23 09:11:45;;;;;;;17.93;5.57;;;;;;;13.06;57.15;62188.16;5091357;28;20252;-71
2022/03/23 09:14:12;;;;;;;9.80;3.67;;;;;;;13.25;57.47;62213.66;5092155;28;20199;-73
2022/03/23 09:16:39;;;;;;;12.30;3.03;;;;;;;12.60;57.09;62147.47;5091614;28;20290;-72
2022/03/23 09:19:06;;;;;;;7.80;3.20;;;;;;;12.06;58.25;62089.53;5091485;28;20200;-73
2022/03/23 09:21:33;;;;;;;9.70;3.60;;;;;;;12.71;55.42;62159.28;5091495;28;20256;-72
2022/03/23 09:24:00;;;;;;;10.93;3.93;;;;;;;13.17;56.65;62205.06;5092069;28;20192;-73
2022/03/23 09:26:28;;;;;;;10.50;3.20;;;;;;;13.28;55.49;62219.44;5091213;28;20200;-72
2022/03/23 09:28:55;;;;;;;11.90;3.50;;;;;;;13.42;54.41;62235.00;5091831;28;20199;-72
2022/03/23 09:31:22;;;;;;;8.40;4.00;;;;;;;13.96;53.33;62292.53;5091354;28;20278;-71
2022/03/23 09:33:49;;;;;;;13.70;4.00;;;;;;;14.20;53.06;62318.31;5091315;28;20199;-72
2022/03/23 09:37:47;;;;;;;18.93;5.20;;;;;;;13.37;51.99;62231.66;5091408;28;20192;-72
2022/03/23 09:39:11;;;;;;;13.40;4.43;;;;;;;13.64;52.14;62253.00;5091555;28;20275;-72
2022/03/23 09:41:39;;;;;;;10.00;3.57;;;;;;;13.15;52.63;62200.38;5091331;28;20610;-71
2022/03/23 09:44:06;;;;;;;11.33;3.77;;;;;;;13.50;53.78;62240.53;5090918;28;20688;-73
2022/03/23 09:46:34;;;;;;;9.03;3.37;;;;;;;13.62;54.05;62253.41;5091913;28;20249;-72
2022/03/23 09:49:01;;;;;;;9.37;3.30;;;;;;;13.23;53.66;62208.94;5095217;28;20249;-71
2022/03/23 09:51:31;;;;;;;8.23;3.70;;;;;;;13.14;53.94;62204.94;5095418;28;20574;-72
2022/03/23 09:53:59;;;;;;;11.53;3.70;;;;;;;12.38;54.87;62123.88;5095845;28;20658;-73
2022/03/23 09:56:26;;;;;;;9.13;3.33;;;;;;;13.26;54.41;62209.63;5095717;28;20222;-72
2022/03/23 09:58:55;;;;;;;5.83;3.40;;;;;;;13.65;52.77;62258.66;5095744;28;20614;-72
2022/03/23 10:02:13;;;;;;;13.43;4.13;;;;;;;13.29;52.15;62217.97;5096132;28;20254;-71
2022/03/23 10:05:27;;;;;;;11.33;3.87;;;;;;;12.92;54.08;62181.28;5082134;28;20762;-72
2022/03/23 10:08:06;;;;;;;12.53;3.40;;;;;;;12.52;54.43;62140.91;5089560;28;20204;-72
2022/03/23 10:11:16;;;;;;;6.33;3.83;;;;;;;12.01;56.10;62084.16;5094375;28;20272;-72
2022/03/23 10:14:19;;;;;;;10.67;3.73;;;;;;;12.19;57.89;62100.38;5094612;28;20264;-73
2022/03/23 10:17:10;;;;;;;8.27;3.60;;;;;;;11.93;56.41;62075.59;5094591;28;20661;-72
2022/03/23 10:19:43;;;;;;;10.37;3.67;;;;;;;12.78;56.56;62168.28;5094088;28;20198;-73
2022/03/23 10:22:11;;;;;;;13.37;3.97;;;;;;;13.02;54.48;62186.91;5094375;28;20263;-72
2022/03/23 10:24:38;;;;;;;8.73;3.60;;;;;;;13.06;52.55;62195.81;5094168;28;20191;-71
2022/03/23 10:27:10;;;;;;;8.50;3.27;;;;;;;13.02;51.69;62189.47;5093639;28;20250;-73
2022/03/23 10:29:42;;;;;;;8.80;3.20;;;;;;;12.39;51.58;62121.84;5094101;28;20248;-71
2022/03/23 10:32:11;;;;;;;6.87;3.23;;;;;;;12.82;51.40;62170.03;5094219;28;20204;-72
2022/03/23 10:34:39;;;;;;;7.27;3.40;;;;;;;12.85;52.58;62168.13;5094314;28;20265;-71
2022/03/23 10:37:07;;;;;;;7.07;3.60;;;;;;;13.19;50.93;62207.75;5094157;28;20192;-72
2022/03/23 10:39:34;;;;;;;12.13;3.80;;;;;;;13.34;50.62;62221.31;5094579;28;20195;-70
2022/03/23 10:42:11;;;;;;;5.63;3.00;;;;;;;13.27;48.25;62218.38;5094625;28;20219;-73
2022/03/23 10:44:37;;;;;;;10.77;3.47;;;;;;;13.43;48.99;62230.97;5094267;28;20195;-72
2022/03/23 10:47:06;;;;;;;6.73;3.23;;;;;;;13.54;48.99;62244.81;5093720;28;20666;-72
2022/03/23 10:49:36;;;;;;;7.93;3.23;;;;;;;13.34;49.11;62213.09;5094441;28;20612;-71
2022/03/23 10:52:14;;;;;;;8.53;3.50;;;;;;;13.82;47.54;62272.34;5093964;28;20227;-72
2022/03/23 10:54:52;;;;;;;10.73;3.77;;;;;;;13.52;48.27;62243.19;5093944;28;20195;-72
2022/03/23 10:57:19;;;;;;;13.33;3.83;;;;;;;13.53;47.65;62243.75;5093538;28;20203;-71
2022/03/23 10:59:47;;;;;;;17.90;4.17;;;;;;;13.58;46.25;62247.09;5093066;28;20196;-72
2022/03/23 11:02:16;;;;;;;10.10;3.50;;;;;;;13.55;45.55;62249.00;5093171;28;20705;-72
2022/03/23 11:04:52;;;;;;;14.13;3.43;;;;;;;12.61;47.38;62148.03;5093652;28;20571;-73
2022/03/23 11:07:29;;;;;;;13.60;3.60;;;;;;;12.29;48.09;62109.09;5093574;28;20590;-71
2022/03/23 11:18:11;;;;;;;11.73;3.57;;;;;;;13.46;45.87;62229.06;5094190;28;20245;-71
2022/03/23 11:20:44;;;;;;;8.87;3.57;;;;;;;13.17;47.21;62205.06;5093373;28;20354;-72
2022/03/23 11:23:24;;;;;;;9.47;3.70;;;;;;;13.05;48.13;62195.28;5093464;28;20199;-71
2022/03/23 11:25:53;;;;;;;8.37;3.70;;;;;;;12.92;48.57;62181.28;5093207;28;20199;-72
2022/03/23 11:28:21;;;;;;;14.20;3.57;;;;;;;12.93;49.04;62181.84;5092900;28;20228;-72
2022/03/23 11:30:48;;;;;;;13.20;4.17;;;;;;;13.06;47.83;62193.25;5093701;28;20260;-73
2022/03/23 11:33:21;;;;;;;11.00;4.00;;;;;;;12.96;46.78;62179.94;5093316;28;20558;-71
2022/03/23 11:35:50;;;;;;;7.60;3.80;;;;;;;13.61;45.52;62252.34;5093484;28;20200;-72
2022/03/23 11:38:18;;;;;;;9.77;3.07;;;;;;;13.63;43.72;62257.03;5092986;28;20195;-73
2022/03/23 11:40:47;;;;;;;6.93;3.50;;;;;;;14.00;43.29;62291.69;5092493;28;20264;-72
2022/03/23 11:43:15;;;;;;;9.13;3.37;;;;;;;13.81;43.27;62271.25;5092709;28;20256;-73
2022/03/23 11:45:45;;;;;;;12.20;4.17;;;;;;;14.32;43.67;62326.13;5091559;28;20203;-71
2022/03/23 11:48:19;;;;;;;19.03;3.60;;;;;;;14.53;44.53;62352.75;5093855;28;20613;-72
2022/03/23 11:51:08;;;;;;;9.47;3.00;;;;;;;14.63;43.39;62366.06;5092777;28;20226;-75
2022/03/23 11:53:43;;;;;;;7.60;3.10;;;;;;;14.36;43.42;62329.88;5092922;28;20576;-71
2022/03/23 11:56:10;;;;;;;8.93;3.87;;;;;;;14.70;42.75;62368.47;5091689;28;20203;-72
2022/03/23 11:58:39;;;;;;;10.97;4.13;;;;;;;15.01;42.09;62404.38;5092390;28;20674;-72
2022/03/23 12:01:10;;;;;;;18.37;3.77;;;;;;;14.83;41.12;62379.88;5092440;28;20223;-72